createdAt,value
2018-04-30T00:00:41.613Z,22.69
2018-04-30T00:03:07.871Z,22.73
2018-04-30T00:05:34.166Z,22.73
2018-04-30T00:08:00.416Z,22.72
2018-04-30T00:10:26.743Z,22.70
2018-04-30T00:12:53.082Z,22.68
2018-04-30T00:15:19.411Z,22.63
2018-04-30T00:17:45.642Z,22.65
2018-04-30T00:20:11.996Z,22.59
2018-04-30T00:22:38.234Z,22.55
2018-04-30T00:25:04.649Z,22.55
2018-04-30T00:27:30.949Z,22.55
2018-04-30T00:29:57.198Z,22.52
2018-04-30T00:32:23.666Z,22.44
2018-04-30T00:34:49.953Z,22.39
2018-04-30T00:37:16.229Z,22.43
2018-04-30T00:39:42.632Z,22.43
2018-04-30T00:42:09.291Z,22.39
2018-04-30T00:44:35.872Z,22.35
2018-04-30T00:47:02.170Z,22.36
2018-04-30T00:49:28.634Z,22.38
2018-04-30T00:51:54.878Z,22.38
2018-04-30T00:54:33.202Z,22.38
2018-04-30T00:56:59.647Z,22.39
2018-04-30T00:59:26.001Z,22.34
2018-04-30T01:01:52.335Z,22.31
2018-04-30T01:04:18.590Z,22.25
2018-04-30T01:06:44.879Z,22.29
2018-04-30T01:09:11.236Z,22.25
2018-04-30T01:11:37.473Z,22.19
2018-04-30T01:14:03.774Z,22.17
2018-04-30T01:16:30.206Z,22.13
2018-04-30T01:18:56.432Z,22.11
2018-04-30T01:21:22.820Z,22.07
2018-04-30T01:23:49.075Z,22.09
2018-04-30T01:26:15.333Z,22.09
2018-04-30T01:28:41.783Z,22.07
2018-04-30T01:31:08.179Z,21.94
2018-04-30T01:33:34.439Z,21.89
2018-04-30T01:36:00.679Z,21.84
2018-04-30T01:38:26.955Z,21.75
2018-04-30T01:40:53.439Z,21.77
2018-04-30T01:43:19.699Z,21.72
2018-04-30T01:45:45.974Z,21.76
2018-04-30T01:48:12.371Z,21.71
2018-04-30T01:50:38.605Z,21.70
2018-04-30T01:53:04.922Z,21.67
2018-04-30T01:55:31.186Z,21.65
2018-04-30T01:57:57.495Z,21.57
2018-04-30T02:00:23.982Z,21.52
2018-04-30T02:02:50.255Z,21.45
2018-04-30T02:05:16.512Z,21.47
2018-04-30T02:07:42.810Z,21.44
2018-04-30T02:10:09.132Z,21.43
2018-04-30T02:12:35.492Z,21.41
2018-04-30T02:15:02.030Z,21.35
2018-04-30T02:17:28.316Z,21.21
2018-04-30T02:19:54.722Z,20.98
2018-04-30T02:22:21.090Z,20.82
2018-04-30T02:24:48.014Z,20.64
2018-04-30T02:27:14.263Z,20.59
2018-04-30T02:29:40.578Z,20.56
2018-04-30T02:32:06.898Z,20.58
2018-04-30T02:34:33.134Z,20.63
2018-04-30T02:36:59.529Z,20.67
2018-04-30T02:39:25.835Z,20.71
2018-04-30T02:41:52.125Z,20.70
2018-04-30T02:44:18.607Z,20.74
2018-04-30T02:46:44.832Z,20.75
2018-04-30T02:49:11.230Z,20.73
2018-04-30T02:51:37.474Z,20.72
2018-04-30T02:54:03.702Z,20.69
2018-04-30T02:56:30.259Z,20.66
2018-04-30T02:58:56.486Z,20.62
2018-04-30T03:01:22.706Z,20.63
2018-04-30T03:03:48.974Z,20.61
2018-04-30T03:06:15.207Z,20.57
2018-04-30T03:08:41.767Z,20.51
2018-04-30T03:11:08.007Z,20.46
2018-04-30T03:13:34.277Z,20.44
2018-04-30T03:16:00.714Z,20.49
2018-04-30T03:18:26.945Z,20.49
2018-04-30T03:20:53.228Z,20.38
2018-04-30T03:23:19.514Z,20.38
2018-04-30T03:25:45.823Z,20.41
2018-04-30T03:28:12.360Z,20.41
2018-04-30T03:30:38.622Z,20.40
2018-04-30T03:33:05.082Z,20.41
2018-04-30T03:35:31.300Z,20.40
2018-04-30T03:37:57.602Z,20.30
2018-04-30T03:40:24.014Z,20.31
2018-04-30T03:42:50.350Z,20.29
2018-04-30T03:45:16.607Z,20.21
2018-04-30T03:47:42.960Z,20.17
2018-04-30T03:50:09.190Z,20.10
2018-04-30T03:52:35.599Z,20.07
2018-04-30T03:55:01.879Z,20.00
2018-04-30T03:57:28.134Z,19.98
2018-04-30T03:59:54.551Z,19.95
2018-04-30T04:02:32.967Z,19.95
2018-04-30T04:05:11.324Z,19.92
2018-04-30T04:07:37.628Z,19.95
2018-04-30T04:10:04.019Z,19.89
2018-04-30T04:12:30.516Z,19.92
2018-04-30T04:14:56.761Z,19.93
2018-04-30T04:17:23.555Z,19.92
2018-04-30T04:19:49.831Z,19.88
2018-04-30T04:22:16.055Z,19.91
2018-04-30T04:24:42.479Z,19.91
2018-04-30T04:27:08.767Z,20.03
2018-04-30T04:29:35.002Z,20.06
2018-04-30T04:32:01.251Z,20.10
2018-04-30T04:34:27.475Z,20.06
2018-04-30T04:36:54.228Z,20.09
2018-04-30T04:39:20.575Z,20.06
2018-04-30T04:41:46.834Z,19.95
2018-04-30T04:44:13.203Z,19.91
2018-04-30T04:46:39.955Z,19.99
2018-04-30T04:49:06.427Z,20.15
2018-04-30T04:51:32.775Z,20.13
2018-04-30T04:53:59.004Z,20.15
2018-04-30T04:56:25.262Z,20.14
2018-04-30T04:58:51.478Z,20.00
2018-04-30T05:01:17.871Z,19.93
2018-04-30T05:03:44.122Z,19.98
2018-04-30T05:06:10.503Z,20.02
2018-04-30T05:08:36.918Z,20.08
2018-04-30T05:11:03.171Z,20.15
2018-04-30T05:13:29.780Z,20.21
2018-04-30T05:15:56.250Z,20.21
2018-04-30T05:18:22.702Z,20.31
2018-04-30T05:20:49.142Z,20.28
2018-04-30T05:23:15.383Z,20.27
2018-04-30T05:25:41.784Z,20.32
2018-04-30T05:28:08.437Z,20.31
2018-04-30T05:30:34.740Z,20.42
2018-04-30T05:33:01.147Z,20.54
2018-04-30T05:35:27.414Z,20.66
2018-04-30T05:37:53.802Z,20.67
2018-04-30T05:40:20.087Z,20.74
2018-04-30T05:42:46.398Z,20.85
2018-04-30T05:45:12.844Z,20.96
2018-04-30T05:47:39.154Z,20.92
2018-04-30T05:50:05.401Z,21.01
2018-04-30T05:52:31.680Z,21.08
2018-04-30T05:54:57.923Z,21.26
2018-04-30T05:57:24.360Z,21.42
2018-04-30T05:59:50.712Z,21.53
2018-04-30T06:02:16.978Z,21.57
2018-04-30T06:04:43.319Z,21.68
2018-04-30T06:07:09.594Z,21.86
2018-04-30T06:09:36.442Z,21.91
2018-04-30T06:12:02.759Z,22.06
2018-04-30T06:14:29.012Z,22.35
2018-04-30T06:16:55.375Z,22.53
2018-04-30T06:19:21.644Z,22.75
2018-04-30T06:21:48.102Z,22.78
2018-04-30T06:24:14.475Z,22.95
2018-04-30T06:26:40.974Z,23.05
2018-04-30T06:29:07.267Z,23.28
2018-04-30T06:31:33.533Z,23.21
2018-04-30T06:33:59.954Z,23.34
2018-04-30T06:36:26.227Z,23.12
2018-04-30T06:38:52.511Z,22.84
2018-04-30T06:41:18.871Z,22.67
2018-04-30T06:43:45.164Z,22.81
2018-04-30T06:46:11.441Z,22.74
2018-04-30T06:48:37.799Z,22.51
2018-04-30T06:51:04.112Z,22.46
2018-04-30T06:53:30.547Z,22.43
2018-04-30T06:55:56.827Z,22.65
2018-04-30T06:58:23.174Z,22.58
2018-04-30T07:00:49.466Z,22.54
2018-04-30T07:03:15.898Z,22.55
2018-04-30T07:05:42.443Z,22.54
2018-04-30T07:08:08.766Z,22.68
2018-04-30T07:10:35.074Z,22.71
2018-04-30T07:13:01.358Z,22.61
2018-04-30T07:15:27.873Z,22.38
2018-04-30T07:17:54.160Z,22.24
2018-04-30T07:20:20.697Z,22.69
2018-04-30T07:22:46.978Z,22.47
2018-04-30T07:25:13.306Z,22.12
2018-04-30T07:27:39.901Z,21.94
2018-04-30T07:30:06.363Z,22.11
2018-04-30T07:32:32.847Z,22.23
2018-04-30T07:34:59.110Z,22.10
2018-04-30T07:37:25.479Z,21.78
2018-04-30T07:39:51.734Z,21.72
2018-04-30T07:42:18.195Z,21.50
2018-04-30T07:44:44.478Z,21.50
2018-04-30T07:47:10.798Z,21.72
2018-04-30T07:49:37.231Z,21.78
2018-04-30T07:52:03.544Z,21.62
2018-04-30T07:54:29.857Z,21.50
2018-04-30T07:56:56.166Z,21.43
2018-04-30T07:59:22.419Z,21.52
2018-04-30T08:01:48.765Z,20.99
2018-04-30T08:04:15.026Z,21.36
2018-04-30T08:06:41.263Z,21.67
2018-04-30T08:09:07.671Z,21.58
2018-04-30T08:11:34.014Z,21.60
2018-04-30T08:14:00.418Z,21.63
2018-04-30T08:16:26.695Z,21.62
2018-04-30T08:18:52.935Z,21.32
2018-04-30T08:21:19.290Z,20.87
2018-04-30T08:23:45.719Z,20.92
2018-04-30T08:26:12.091Z,21.67
2018-04-30T08:28:38.361Z,22.35
2018-04-30T08:31:04.605Z,23.32
2018-04-30T08:33:31.114Z,23.42
2018-04-30T08:35:57.466Z,23.09
2018-04-30T08:38:23.698Z,22.86
2018-04-30T08:40:50.049Z,22.83
2018-04-30T08:43:16.334Z,22.98
2018-04-30T08:45:42.770Z,22.85
2018-04-30T08:48:09.130Z,23.05
2018-04-30T08:50:35.357Z,21.98
2018-04-30T08:53:01.682Z,21.54
2018-04-30T08:55:27.994Z,20.99
2018-04-30T08:57:54.495Z,21.18
2018-04-30T09:00:20.820Z,20.41
2018-04-30T09:02:47.070Z,20.60
2018-04-30T09:05:13.485Z,21.88
2018-04-30T09:07:39.827Z,21.83
2018-04-30T09:10:06.194Z,20.97
2018-04-30T09:12:32.506Z,20.72
2018-04-30T09:14:58.873Z,20.47
2018-04-30T09:17:25.359Z,21.48
2018-04-30T09:19:51.609Z,21.59
2018-04-30T09:22:17.968Z,21.94
2018-04-30T09:24:44.276Z,21.25
2018-04-30T09:27:10.609Z,21.00
2018-04-30T09:29:36.971Z,20.58
2018-04-30T09:32:03.223Z,20.22
2018-04-30T09:34:29.530Z,20.67
2018-04-30T09:36:57.070Z,21.48
2018-04-30T09:39:23.391Z,21.42
2018-04-30T09:41:49.762Z,22.36
2018-04-30T09:44:16.061Z,23.06
2018-04-30T09:46:42.483Z,23.66
2018-04-30T09:49:08.822Z,23.49
2018-04-30T09:51:35.008Z,22.98
2018-04-30T09:54:01.534Z,22.89
2018-04-30T09:56:27.798Z,23.58
2018-04-30T09:58:54.161Z,23.14
2018-04-30T10:01:20.475Z,23.70
2018-04-30T10:03:46.820Z,24.46
2018-04-30T10:06:13.381Z,24.59
2018-04-30T10:08:39.702Z,24.49
2018-04-30T10:11:05.964Z,24.39
2018-04-30T10:13:32.194Z,24.79
2018-04-30T10:15:58.584Z,24.94
2018-04-30T10:18:25.019Z,24.96
2018-04-30T10:20:51.317Z,24.71
2018-04-30T10:23:17.579Z,24.50
2018-04-30T10:25:43.939Z,24.58
2018-04-30T10:28:10.325Z,24.51
2018-04-30T10:30:36.728Z,24.07
2018-04-30T10:33:03.025Z,23.87
2018-04-30T10:35:29.314Z,24.00
2018-04-30T10:37:55.760Z,23.99
2018-04-30T10:40:22.006Z,24.52
2018-04-30T10:42:48.369Z,24.11
2018-04-30T10:45:14.668Z,24.45
2018-04-30T10:47:41.035Z,24.97
2018-04-30T10:50:07.598Z,25.64
2018-04-30T10:52:33.933Z,25.87
2018-04-30T10:55:00.288Z,26.38
2018-04-30T10:57:26.690Z,27.21
2018-04-30T10:59:52.982Z,27.95
2018-04-30T11:02:19.434Z,28.04
2018-04-30T11:04:45.757Z,28.33
2018-04-30T11:07:12.104Z,27.63
2018-04-30T11:09:38.403Z,27.14
2018-04-30T11:12:04.734Z,26.69
2018-04-30T11:14:31.040Z,25.56
2018-04-30T11:16:57.413Z,24.21
2018-04-30T11:19:23.642Z,22.83
2018-04-30T11:21:49.977Z,22.24
2018-04-30T11:24:16.308Z,22.16
2018-04-30T11:26:42.621Z,22.12
2018-04-30T11:29:08.913Z,21.82
2018-04-30T11:31:35.325Z,22.22
2018-04-30T11:34:01.758Z,22.63
2018-04-30T11:36:28.082Z,24.31
2018-04-30T11:38:54.353Z,23.77
2018-04-30T11:41:20.703Z,25.08
2018-04-30T11:43:46.951Z,26.06
2018-04-30T11:46:13.411Z,26.31
2018-04-30T11:48:39.713Z,26.56
2018-04-30T11:51:06.138Z,25.69
2018-04-30T11:53:32.520Z,25.92
2018-04-30T11:55:59.052Z,24.12
2018-04-30T11:58:25.604Z,24.62
2018-04-30T12:00:51.951Z,23.49
2018-04-30T12:03:18.224Z,22.49
2018-04-30T12:05:44.583Z,22.13
2018-04-30T12:08:10.967Z,21.82
2018-04-30T12:10:37.388Z,21.63
2018-04-30T12:13:03.707Z,21.27
2018-04-30T12:15:29.954Z,21.10
2018-04-30T12:17:56.307Z,21.23
2018-04-30T12:20:22.575Z,22.24
2018-04-30T12:22:48.947Z,23.15
2018-04-30T12:25:15.337Z,23.34
2018-04-30T12:27:41.637Z,23.74
2018-04-30T12:30:08.159Z,25.55
2018-04-30T12:32:34.487Z,26.42
2018-04-30T12:35:00.925Z,27.24
2018-04-30T12:37:27.272Z,28.03
2018-04-30T12:39:53.544Z,28.10
2018-04-30T12:42:19.926Z,28.78
2018-04-30T12:44:46.234Z,29.15
2018-04-30T12:47:12.575Z,29.31
2018-04-30T12:49:38.972Z,28.20
2018-04-30T12:52:05.248Z,26.14
2018-04-30T12:54:31.723Z,25.53
2018-04-30T12:56:58.116Z,24.29
2018-04-30T12:59:24.364Z,24.00
2018-04-30T13:01:50.985Z,23.31
2018-04-30T13:04:17.285Z,23.58
2018-04-30T13:06:43.560Z,24.11
2018-04-30T13:09:10.234Z,23.44
2018-04-30T13:11:37.218Z,22.77
2018-04-30T13:14:03.989Z,22.65
2018-04-30T13:16:30.271Z,25.32
2018-04-30T13:18:56.565Z,27.82
2018-04-30T13:21:22.857Z,28.62
2018-04-30T13:23:49.125Z,29.80
2018-04-30T13:26:15.503Z,30.01
2018-04-30T13:28:41.786Z,29.17
2018-04-30T13:31:08.089Z,28.63
2018-04-30T13:33:34.364Z,29.06
2018-04-30T13:36:00.745Z,29.37
2018-04-30T13:38:27.215Z,29.20
2018-04-30T13:40:53.547Z,29.54
2018-04-30T13:43:19.955Z,28.93
2018-04-30T13:45:46.284Z,29.54
2018-04-30T13:48:12.655Z,29.22
2018-04-30T13:50:40.270Z,28.60
2018-04-30T13:53:06.536Z,29.02
2018-04-30T13:55:33.090Z,29.16
2018-04-30T13:57:59.396Z,28.87
2018-04-30T14:00:25.707Z,28.16
2018-04-30T14:02:52.024Z,29.00
2018-04-30T14:05:18.279Z,30.07
2018-04-30T14:07:44.729Z,30.84
2018-04-30T14:10:11.216Z,30.60
2018-04-30T14:12:37.557Z,30.35
2018-04-30T14:15:03.987Z,30.02
2018-04-30T14:17:30.207Z,30.45
2018-04-30T14:19:56.629Z,31.49
2018-04-30T14:22:22.853Z,31.44
2018-04-30T14:24:49.094Z,31.22
2018-04-30T14:27:15.540Z,31.78
2018-04-30T14:29:41.838Z,31.10
2018-04-30T14:32:08.178Z,30.50
2018-04-30T14:34:34.522Z,30.37
2018-04-30T14:37:00.763Z,31.23
2018-04-30T14:39:27.822Z,30.45
2018-04-30T14:41:54.119Z,30.08
2018-04-30T14:44:20.393Z,28.76
2018-04-30T14:46:46.644Z,29.57
2018-04-30T14:49:13.014Z,29.73
2018-04-30T14:51:39.402Z,30.21
2018-04-30T14:54:05.677Z,29.88
2018-04-30T14:56:32.018Z,31.03
2018-04-30T14:58:58.259Z,31.36
2018-04-30T15:01:24.545Z,30.82
2018-04-30T15:03:51.118Z,30.53
2018-04-30T15:06:17.466Z,30.68
2018-04-30T15:08:43.962Z,30.21
2018-04-30T15:11:10.312Z,29.48
2018-04-30T15:13:36.659Z,28.45
2018-04-30T15:16:03.154Z,28.60
2018-04-30T15:18:29.414Z,29.18
2018-04-30T15:20:55.648Z,29.16
2018-04-30T15:23:22.979Z,28.44
2018-04-30T15:25:49.246Z,28.03
2018-04-30T15:28:15.706Z,27.27
2018-04-30T15:30:42.002Z,27.00
2018-04-30T15:33:08.268Z,26.76
2018-04-30T15:35:34.516Z,26.54
2018-04-30T15:38:00.764Z,25.89
2018-04-30T15:40:27.264Z,25.25
2018-04-30T15:42:53.671Z,24.68
2018-04-30T15:45:19.921Z,23.94
2018-04-30T15:47:46.282Z,23.66
2018-04-30T15:50:12.495Z,23.42
2018-04-30T15:52:39.718Z,23.11
2018-04-30T15:55:05.983Z,22.74
2018-04-30T15:57:32.420Z,22.49
2018-04-30T15:59:58.719Z,22.49
2018-04-30T16:02:25.067Z,21.98
2018-04-30T16:04:51.752Z,21.84
2018-04-30T16:07:18.311Z,21.91
2018-04-30T16:09:44.664Z,21.95
2018-04-30T16:12:10.936Z,21.72
2018-04-30T16:14:37.237Z,21.70
2018-04-30T16:17:03.777Z,21.65
2018-04-30T16:19:30.050Z,21.49
2018-04-30T16:21:56.266Z,21.39
2018-04-30T16:24:22.786Z,21.30
2018-04-30T16:26:49.075Z,21.42
2018-04-30T16:29:15.478Z,21.45
2018-04-30T16:31:41.747Z,21.37
2018-04-30T16:34:08.082Z,21.40
2018-04-30T16:36:34.456Z,21.39
2018-04-30T16:39:00.786Z,21.16
2018-04-30T16:41:27.278Z,21.01
2018-04-30T16:43:53.582Z,21.00
2018-04-30T16:46:19.872Z,21.26
2018-04-30T16:48:46.190Z,21.28
2018-04-30T16:51:12.454Z,21.45
2018-04-30T16:53:38.891Z,21.45
2018-04-30T16:56:05.182Z,21.42
2018-04-30T16:58:31.459Z,21.59
2018-04-30T17:00:57.885Z,21.48
2018-04-30T17:03:24.130Z,21.32
2018-04-30T17:05:50.355Z,21.34
2018-04-30T17:08:16.631Z,21.48
2018-04-30T17:10:42.922Z,21.40
2018-04-30T17:13:09.331Z,21.30
2018-04-30T17:15:35.669Z,21.27
2018-04-30T17:18:02.003Z,21.21
2018-04-30T17:20:28.443Z,21.15
2018-04-30T17:22:54.723Z,21.09
2018-04-30T17:25:21.209Z,21.04
2018-04-30T17:27:47.467Z,20.87
2018-04-30T17:30:13.709Z,20.86
2018-04-30T17:32:40.106Z,20.95
2018-04-30T17:35:06.357Z,20.90
2018-04-30T17:37:32.694Z,21.07
2018-04-30T17:39:59.050Z,21.16
2018-04-30T17:42:25.650Z,21.20
2018-04-30T17:44:52.178Z,21.16
2018-04-30T17:47:18.451Z,21.10
2018-04-30T17:49:44.719Z,21.15
2018-04-30T17:52:11.091Z,21.01
2018-04-30T17:54:37.249Z,21.00
2018-04-30T17:57:03.723Z,20.93
2018-04-30T17:59:29.994Z,20.88
2018-04-30T18:01:56.283Z,20.93
2018-04-30T18:04:22.616Z,20.80
2018-04-30T18:06:48.929Z,20.78
2018-04-30T18:09:15.304Z,20.81
2018-04-30T18:11:41.549Z,20.78
2018-04-30T18:14:07.774Z,20.84
2018-04-30T18:16:34.248Z,20.75
2018-04-30T18:19:03.849Z,20.80
2018-04-30T18:21:30.430Z,20.84
2018-04-30T18:23:56.747Z,20.78
2018-04-30T18:26:23.088Z,20.73
2018-04-30T18:28:49.539Z,20.65
2018-04-30T18:31:15.995Z,20.61
2018-04-30T18:33:42.325Z,20.67
2018-04-30T18:36:08.637Z,20.61
2018-04-30T18:38:34.843Z,20.56
2018-04-30T18:41:01.219Z,20.46
2018-04-30T18:43:27.479Z,20.30
2018-04-30T18:45:53.745Z,20.22
2018-04-30T18:48:19.982Z,19.98
2018-04-30T19:04:05.209Z,19.16
2018-04-30T19:06:31.539Z,19.11
2018-04-30T19:08:58.020Z,19.03
2018-04-30T19:11:24.270Z,19.01
2018-04-30T19:13:50.709Z,18.96
2018-04-30T19:16:16.979Z,18.92
2018-04-30T19:18:43.406Z,18.88
2018-04-30T19:21:09.835Z,18.84
2018-04-30T19:23:36.062Z,18.79
2018-04-30T19:26:02.363Z,18.70
2018-04-30T19:28:28.795Z,18.65
2018-04-30T19:30:55.175Z,18.58
2018-04-30T19:33:21.561Z,18.49
2018-04-30T19:35:47.839Z,18.47
2018-04-30T19:38:14.094Z,18.39
2018-04-30T19:40:41.466Z,18.35
2018-04-30T19:43:07.726Z,18.25
2018-04-30T19:45:34.113Z,18.23
2018-04-30T19:48:00.471Z,18.13
2018-04-30T19:50:26.784Z,18.16
2018-04-30T19:52:53.345Z,18.19
2018-04-30T19:55:19.583Z,18.28
2018-04-30T19:57:45.991Z,18.30
2018-04-30T20:00:12.287Z,18.38
2018-04-30T20:02:38.520Z,18.42
2018-04-30T20:05:04.839Z,18.43
2018-04-30T20:07:31.167Z,18.47
2018-04-30T20:09:57.601Z,18.40
2018-04-30T20:12:23.878Z,18.27
2018-04-30T20:14:50.167Z,18.30
2018-04-30T20:17:16.573Z,18.35
2018-04-30T20:19:42.798Z,18.38
2018-04-30T20:22:09.063Z,18.46
2018-04-30T20:24:35.389Z,18.55
2018-04-30T20:27:01.622Z,18.52
2018-04-30T20:29:28.209Z,18.56
2018-04-30T20:31:54.451Z,18.49
2018-04-30T20:34:21.179Z,18.44
2018-04-30T20:36:47.442Z,18.49
2018-04-30T20:39:13.912Z,18.44
2018-04-30T20:41:40.351Z,18.45
2018-04-30T20:44:06.609Z,18.43
2018-04-30T20:46:33.184Z,18.40
2018-04-30T20:48:59.491Z,18.40
2018-04-30T20:51:26.069Z,18.37
2018-04-30T20:53:52.502Z,18.35
2018-04-30T20:56:18.726Z,18.20
2018-04-30T20:58:45.421Z,17.99
2018-04-30T21:01:11.676Z,17.71
2018-04-30T21:03:38.078Z,17.58
2018-04-30T21:06:04.607Z,17.68
2018-04-30T21:08:43.091Z,17.69
2018-04-30T21:11:09.494Z,17.68
2018-04-30T21:13:35.739Z,17.79
2018-04-30T21:16:02.286Z,17.83
2018-04-30T21:18:28.685Z,17.80
2018-04-30T21:20:54.916Z,17.77
2018-04-30T21:23:21.364Z,17.78
2018-04-30T21:25:47.639Z,17.67
2018-04-30T21:28:14.188Z,17.53
2018-04-30T21:30:40.647Z,17.52
2018-04-30T21:33:06.906Z,17.51
2018-04-30T21:35:33.235Z,17.33
2018-04-30T21:37:59.474Z,17.25
2018-04-30T21:40:25.954Z,17.22
2018-04-30T21:42:52.468Z,17.12
2018-04-30T21:45:18.753Z,16.98
2018-04-30T21:47:45.123Z,16.86
2018-04-30T21:50:11.380Z,16.88
2018-04-30T21:52:37.733Z,16.90
2018-04-30T21:55:04.188Z,16.94
2018-04-30T21:57:30.462Z,16.96
2018-04-30T21:59:56.884Z,16.92
2018-04-30T22:02:23.191Z,16.85
2018-04-30T22:04:49.632Z,16.94
2018-04-30T22:07:16.133Z,16.97
2018-04-30T22:09:42.427Z,17.08
2018-04-30T22:12:08.944Z,17.14
2018-04-30T22:14:35.258Z,17.11
2018-04-30T22:17:01.633Z,17.10
2018-04-30T22:19:27.977Z,17.08
2018-04-30T22:21:54.275Z,17.14
2018-04-30T22:24:20.496Z,17.11
2018-04-30T22:26:47.610Z,17.10
2018-04-30T22:29:13.938Z,17.10
2018-04-30T22:31:40.348Z,17.16
2018-04-30T22:34:06.610Z,16.90
2018-04-30T22:36:33.212Z,16.74
2018-04-30T22:38:59.724Z,16.88
2018-04-30T22:41:26.142Z,17.00
2018-04-30T22:43:52.758Z,16.76
2018-04-30T22:46:19.103Z,16.80
2018-04-30T22:48:45.333Z,16.85
2018-04-30T22:51:11.568Z,16.86
2018-04-30T22:53:37.829Z,16.89
2018-04-30T22:56:04.227Z,17.02
2018-04-30T22:58:30.515Z,16.99
2018-04-30T23:00:56.737Z,17.02
2018-04-30T23:03:23.163Z,16.99
2018-04-30T23:05:49.421Z,17.00
2018-04-30T23:08:15.769Z,16.95
2018-04-30T23:10:41.986Z,16.99
2018-04-30T23:13:08.284Z,17.08
2018-04-30T23:15:34.815Z,17.04
2018-04-30T23:18:01.027Z,16.98
2018-04-30T23:20:27.378Z,16.98
2018-04-30T23:22:53.684Z,16.95
2018-04-30T23:25:19.953Z,16.93
2018-04-30T23:27:46.474Z,16.90
2018-04-30T23:30:12.703Z,16.88
2018-04-30T23:32:39.002Z,16.89
2018-04-30T23:35:05.419Z,16.89
2018-04-30T23:37:31.663Z,16.86
2018-04-30T23:39:58.106Z,16.79
2018-04-30T23:42:24.432Z,16.85
2018-04-30T23:44:50.647Z,16.88
2018-04-30T23:47:17.019Z,16.80
2018-04-30T23:49:43.351Z,16.88
2018-04-30T23:52:09.570Z,16.89
2018-04-30T23:54:35.783Z,16.89
2018-04-30T23:57:02.054Z,16.90
2018-04-30T23:59:28.468Z,16.96
